createdAt,value
2018-01-12T00:00:04.367Z,39.60
2018-01-12T00:02:32.452Z,40.90
2018-01-12T00:05:00.521Z,39.80
2018-01-12T00:07:29.371Z,41.28
2018-01-12T00:09:57.442Z,41.47
2018-01-12T00:12:25.519Z,38.72
2018-01-12T00:14:53.587Z,41.80
2018-01-12T00:17:21.676Z,42.13
2018-01-12T00:19:49.749Z,43.87
2018-01-12T00:22:17.829Z,41.78
2018-01-12T00:24:45.898Z,39.83
2018-01-12T00:27:13.992Z,39.90
2018-01-12T00:29:42.821Z,41.42
2018-01-12T00:32:10.911Z,41.88
2018-01-12T00:34:38.972Z,42.62
2018-01-12T00:37:07.047Z,39.13
2018-01-12T00:39:35.131Z,40.47
2018-01-12T00:42:03.233Z,39.92
2018-01-12T00:44:32.069Z,42.45
2018-01-12T00:47:00.137Z,43.25
2018-01-12T00:49:28.222Z,40.85
2018-01-12T00:51:56.303Z,41.08
2018-01-12T00:54:24.389Z,41.72
2018-01-12T00:56:53.234Z,42.03
2018-01-12T00:59:21.312Z,42.08
2018-01-12T01:01:49.382Z,40.40
2018-01-12T01:04:17.466Z,39.33
2018-01-12T01:06:45.546Z,39.80
2018-01-12T01:09:13.622Z,40.20
2018-01-12T01:11:41.712Z,41.78
2018-01-12T01:14:10.566Z,41.90
2018-01-12T01:16:38.638Z,43.03
2018-01-12T01:19:06.720Z,41.35
2018-01-12T01:21:34.792Z,42.50
2018-01-12T01:24:02.871Z,40.63
2018-01-12T01:26:31.710Z,40.30
2018-01-12T01:29:00.135Z,43.17
2018-01-12T01:31:28.205Z,41.58
2018-01-12T01:33:56.273Z,41.65
2018-01-12T01:36:24.346Z,40.97
2018-01-12T01:38:52.417Z,40.55
2018-01-12T01:41:20.513Z,42.30
2018-01-12T01:43:48.589Z,40.15
2018-01-12T01:46:16.675Z,41.55
2018-01-12T01:48:44.741Z,41.45
2018-01-12T01:51:13.129Z,40.63
2018-01-12T01:53:41.198Z,39.95
2018-01-12T01:56:09.738Z,40.70
2018-01-12T01:58:38.570Z,38.47
2018-01-12T02:01:06.661Z,41.22
2018-01-12T02:03:34.739Z,39.63
2018-01-12T02:06:02.821Z,41.58
2018-01-12T02:08:30.889Z,40.60
2018-01-12T02:10:58.957Z,41.45
2018-01-12T02:13:27.044Z,41.35
2018-01-12T02:15:55.114Z,40.50
2018-01-12T02:18:23.194Z,42.38
2018-01-12T02:20:52.031Z,43.13
2018-01-12T02:23:20.103Z,40.17
2018-01-12T02:25:48.212Z,41.80
2018-01-12T02:28:16.298Z,42.28
2018-01-12T02:30:45.139Z,42.25
2018-01-12T02:33:13.222Z,43.33
2018-01-12T02:35:41.289Z,42.13
2018-01-12T02:38:09.367Z,42.05
2018-01-12T02:40:37.473Z,40.33
2018-01-12T02:43:06.322Z,42.40
2018-01-12T02:45:34.393Z,42.15
2018-01-12T02:48:02.475Z,39.55
2018-01-12T02:50:30.549Z,41.60
2018-01-12T02:52:58.626Z,42.92
2018-01-12T02:55:26.724Z,45.15
2018-01-12T02:57:54.800Z,41.40
2018-01-12T03:00:22.873Z,41.45
2018-01-12T03:02:50.943Z,40.65
2018-01-12T03:05:19.021Z,41.42
2018-01-12T03:07:47.095Z,39.33
2018-01-12T03:10:15.170Z,40.50
2018-01-12T03:12:43.244Z,41.28
2018-01-12T03:15:11.327Z,40.03
2018-01-12T03:17:39.455Z,39.40
2018-01-12T03:20:07.482Z,41.37
2018-01-12T03:22:35.555Z,42.95
2018-01-12T03:25:03.626Z,43.92
2018-01-12T03:27:31.715Z,39.58
2018-01-12T03:29:59.801Z,40.72
2018-01-12T03:32:28.646Z,43.80
2018-01-12T03:34:56.720Z,38.78
2018-01-12T03:37:24.801Z,40.90
2018-01-12T03:39:52.867Z,39.15
2018-01-12T03:42:21.781Z,43.95
2018-01-12T03:44:50.619Z,41.30
2018-01-12T03:47:18.699Z,41.58
2018-01-12T03:49:46.788Z,42.95
2018-01-12T03:52:14.865Z,44.63
2018-01-12T03:54:42.943Z,44.85
2018-01-12T03:57:11.009Z,44.65
2018-01-12T03:59:39.091Z,42.83
2018-01-12T04:02:07.163Z,41.55
2018-01-12T04:04:36.011Z,44.58
2018-01-12T04:07:04.078Z,40.58
2018-01-12T04:09:32.163Z,41.10
2018-01-12T04:12:00.239Z,40.75
2018-01-12T04:14:28.314Z,46.15
2018-01-12T04:16:56.392Z,42.80
2018-01-12T04:19:24.458Z,45.60
2018-01-12T04:21:52.538Z,43.85
2018-01-12T04:24:20.615Z,41.78
2018-01-12T04:26:48.677Z,42.95
2018-01-12T04:29:16.758Z,41.37
2018-01-12T04:31:45.589Z,45.80
2018-01-12T04:34:13.672Z,42.42
2018-01-12T04:36:41.738Z,42.28
2018-01-12T04:39:09.814Z,44.78
2018-01-12T04:41:37.892Z,41.50
2018-01-12T04:44:05.972Z,42.65
2018-01-12T04:46:34.048Z,45.95
2018-01-12T04:49:02.123Z,50.55
2018-01-12T04:51:30.197Z,42.88
2018-01-12T04:53:58.269Z,42.78
2018-01-12T04:56:26.342Z,44.55
2018-01-12T04:58:54.433Z,40.10
2018-01-12T05:01:23.270Z,42.15
2018-01-12T05:03:51.356Z,43.53
2018-01-12T05:06:19.464Z,45.25
2018-01-12T05:08:48.296Z,40.65
2018-01-12T05:11:16.368Z,42.78
2018-01-12T05:13:44.448Z,40.03
2018-01-12T05:16:12.527Z,38.75
2018-01-12T05:18:40.667Z,40.92
2018-01-12T05:21:08.743Z,41.72
2018-01-12T05:23:36.820Z,40.70
2018-01-12T05:26:04.897Z,39.30
2018-01-12T05:28:32.953Z,39.10
2018-01-12T05:31:01.063Z,37.58
2018-01-12T05:33:29.180Z,37.85
2018-01-12T05:35:57.251Z,39.08
2018-01-12T05:38:25.329Z,36.08
2018-01-12T05:40:53.411Z,35.45
2018-01-12T05:43:21.483Z,33.00
2018-01-12T05:45:49.559Z,34.92
2018-01-12T05:48:17.626Z,32.28
2018-01-12T05:50:45.715Z,30.67
2018-01-12T05:53:13.791Z,30.62
2018-01-12T05:55:41.874Z,30.95
2018-01-12T05:58:10.010Z,32.05
2018-01-12T06:00:38.078Z,29.73
2018-01-12T06:03:24.138Z,29.48
2018-01-12T06:08:58.435Z,29.17
2018-01-12T06:11:26.503Z,29.98
2018-01-12T06:13:54.567Z,26.40
2018-01-12T06:16:22.644Z,30.42
2018-01-12T06:18:50.707Z,29.65
2018-01-12T06:21:18.777Z,30.05
2018-01-12T06:23:46.855Z,25.65
2018-01-12T06:26:14.919Z,27.73
2018-01-12T06:28:42.981Z,26.35
2018-01-12T06:31:11.054Z,27.08
2018-01-12T06:33:39.147Z,25.77
2018-01-12T06:36:07.224Z,25.35
2018-01-12T06:38:35.306Z,27.15
2018-01-12T06:41:03.353Z,26.23
2018-01-12T06:43:31.421Z,25.77
2018-01-12T06:45:59.489Z,26.20
2018-01-12T06:48:27.566Z,26.00
2018-01-12T06:50:55.629Z,26.25
2018-01-12T06:53:23.716Z,26.08
2018-01-12T06:55:51.794Z,26.58
2018-01-12T06:58:19.854Z,25.62
2018-01-12T07:00:47.918Z,23.58
2018-01-12T07:03:15.981Z,25.27
2018-01-12T07:05:44.045Z,26.60
2018-01-12T07:08:12.127Z,25.00
2018-01-12T07:10:40.197Z,26.40
2018-01-12T07:13:08.275Z,23.55
2018-01-12T07:15:36.333Z,23.75
2018-01-12T07:18:04.409Z,24.02
2018-01-12T07:20:50.383Z,23.08
2018-01-12T07:23:36.599Z,22.15
2018-01-12T07:26:04.683Z,21.30
2018-01-12T07:28:33.518Z,21.73
2018-01-12T07:31:01.582Z,24.25
2018-01-12T07:33:29.663Z,23.35
2018-01-12T07:35:57.729Z,22.55
2018-01-12T07:38:25.786Z,23.35
2018-01-12T07:40:53.867Z,21.50
2018-01-12T07:43:21.998Z,23.30
2018-01-12T07:45:50.074Z,21.20
2018-01-12T07:48:18.902Z,22.70
2018-01-12T07:50:46.982Z,19.83
2018-01-12T07:53:20.714Z,22.20
2018-01-12T07:55:48.785Z,23.33
2018-01-12T07:58:16.889Z,21.48
2018-01-12T08:03:51.912Z,21.65
2018-01-12T08:06:19.983Z,21.83
2018-01-12T08:08:48.061Z,22.62
2018-01-12T08:11:16.132Z,22.55
2018-01-12T08:13:44.962Z,21.40
2018-01-12T08:16:13.034Z,22.50
2018-01-12T08:18:41.110Z,23.08
2018-01-12T08:21:09.185Z,23.33
2018-01-12T08:23:37.249Z,23.83
2018-01-12T08:26:05.344Z,22.35
2018-01-12T08:28:33.409Z,20.35
2018-01-12T08:31:01.507Z,24.63
2018-01-12T08:33:29.578Z,21.58
2018-01-12T08:35:57.655Z,24.45
2018-01-12T08:38:26.493Z,23.50
2018-01-12T08:40:54.563Z,22.77
2018-01-12T08:43:22.692Z,23.40
2018-01-12T08:45:50.720Z,23.58
2018-01-12T08:48:18.801Z,21.60
2018-01-12T08:50:46.866Z,23.48
2018-01-12T08:53:14.943Z,23.17
2018-01-12T08:55:43.019Z,23.55
2018-01-12T08:58:11.105Z,22.95
2018-01-12T09:00:39.948Z,23.80
2018-01-12T09:03:08.024Z,22.05
2018-01-12T09:05:36.095Z,24.42
2018-01-12T09:08:04.160Z,23.80
2018-01-12T09:10:32.291Z,23.38
2018-01-12T09:13:00.322Z,24.65
2018-01-12T09:15:29.166Z,24.08
2018-01-12T09:18:01.077Z,22.58
2018-01-12T09:20:35.938Z,24.58
2018-01-12T09:23:18.511Z,23.12
2018-01-12T09:25:46.573Z,25.15
2018-01-12T09:28:14.634Z,22.30
2018-01-12T09:30:42.715Z,23.08
2018-01-12T09:33:10.787Z,24.12
2018-01-12T09:35:38.863Z,24.73
2018-01-12T09:38:21.869Z,22.10
2018-01-12T09:40:49.953Z,22.80
2018-01-12T09:43:18.017Z,23.65
2018-01-12T09:45:46.103Z,24.77
2018-01-12T09:48:37.772Z,23.42
2018-01-12T09:51:05.874Z,26.50
2018-01-12T09:53:33.935Z,25.08
2018-01-12T09:56:02.006Z,24.37
2018-01-12T09:58:30.070Z,26.80
2018-01-12T10:01:08.063Z,23.80
2018-01-12T10:03:36.090Z,25.55
2018-01-12T10:06:04.169Z,23.85
2018-01-12T10:08:33.010Z,23.90
2018-01-12T10:11:01.078Z,23.77
2018-01-12T10:13:29.154Z,24.00
2018-01-12T10:15:57.234Z,25.73
2018-01-12T10:18:35.253Z,25.98
2018-01-12T10:24:07.115Z,23.65
2018-01-12T10:26:35.195Z,24.42
2018-01-12T10:29:07.229Z,25.33
2018-01-12T10:31:51.086Z,25.60
2018-01-12T10:34:44.853Z,22.42
2018-01-12T10:37:12.925Z,23.00
2018-01-12T10:39:58.929Z,24.23
2018-01-12T10:42:26.997Z,22.62
2018-01-12T10:44:55.065Z,23.83
2018-01-12T10:47:27.043Z,25.70
2018-01-12T10:52:56.249Z,23.02
2018-01-12T10:55:24.598Z,24.00
2018-01-12T10:57:52.682Z,25.08
2018-01-12T11:00:31.589Z,24.85
2018-01-12T11:02:59.663Z,22.98
2018-01-12T11:05:27.729Z,23.05
2018-01-12T11:07:55.802Z,23.17
2018-01-12T11:10:23.874Z,23.73
2018-01-12T11:12:51.943Z,27.00
2018-01-12T11:15:20.015Z,28.80
2018-01-12T11:17:48.094Z,22.62
2018-01-12T11:20:16.179Z,21.52
2018-01-12T11:22:44.253Z,22.60
2018-01-12T11:25:12.326Z,22.77
2018-01-12T11:27:40.400Z,23.62
2018-01-12T11:30:08.521Z,23.75
2018-01-12T11:32:37.355Z,21.75
2018-01-12T11:35:05.426Z,23.15
2018-01-12T11:37:33.510Z,21.15
2018-01-12T11:40:01.588Z,22.80
2018-01-12T11:42:29.662Z,20.90
2018-01-12T11:44:57.751Z,24.50
2018-01-12T11:47:26.582Z,24.55
2018-01-12T11:49:54.655Z,21.83
2018-01-12T11:52:22.726Z,20.52
2018-01-12T11:54:50.790Z,22.08
2018-01-12T11:57:18.863Z,23.02
2018-01-12T11:59:47.746Z,21.52
2018-01-12T12:02:15.824Z,23.65
2018-01-12T12:04:43.894Z,23.00
2018-01-12T12:07:11.977Z,23.58
2018-01-12T12:09:40.041Z,23.42
2018-01-12T12:12:08.127Z,21.12
2018-01-12T12:14:36.185Z,20.80
2018-01-12T12:17:04.266Z,20.90
2018-01-12T12:19:32.331Z,22.55
2018-01-12T12:22:00.399Z,23.42
2018-01-12T12:24:28.466Z,22.80
2018-01-12T12:26:56.547Z,24.92
2018-01-12T12:29:24.609Z,23.38
2018-01-12T12:31:52.684Z,23.17
2018-01-12T12:34:20.767Z,22.90
2018-01-12T12:36:48.841Z,22.05
2018-01-12T12:39:16.919Z,24.77
2018-01-12T12:41:44.980Z,21.40
2018-01-12T12:44:13.054Z,22.85
2018-01-12T12:46:41.146Z,19.50
2018-01-12T12:49:09.294Z,22.70
2018-01-12T12:51:37.354Z,22.30
2018-01-12T12:54:05.430Z,30.37
2018-01-12T12:56:33.505Z,22.25
2018-01-12T12:59:01.575Z,22.45
2018-01-12T13:01:29.639Z,23.23
2018-01-12T13:03:57.723Z,22.77
2018-01-12T13:06:25.836Z,23.60
2018-01-12T13:08:53.962Z,24.50
2018-01-12T13:11:21.985Z,24.08
2018-01-12T13:13:50.058Z,20.65
2018-01-12T13:16:18.130Z,23.62
2018-01-12T13:18:46.206Z,22.70
2018-01-12T13:21:14.274Z,24.30
2018-01-12T13:23:42.365Z,22.62
2018-01-12T13:26:10.430Z,24.45
2018-01-12T13:28:38.495Z,21.67
2018-01-12T13:31:06.573Z,21.87
2018-01-12T13:33:34.646Z,23.33
2018-01-12T13:36:02.763Z,24.00
2018-01-12T13:38:31.585Z,24.52
2018-01-12T13:40:59.670Z,23.55
2018-01-12T13:43:27.790Z,25.33
2018-01-12T13:45:56.640Z,23.33
2018-01-12T13:48:24.714Z,22.75
2018-01-12T13:50:52.803Z,23.67
2018-01-12T13:53:20.883Z,24.30
2018-01-12T13:55:49.718Z,24.17
2018-01-12T13:58:17.797Z,24.00
2018-01-12T14:00:45.862Z,26.98
2018-01-12T14:03:14.575Z,24.17
2018-01-12T14:05:42.650Z,23.85
2018-01-12T14:08:11.066Z,27.00
2018-01-12T14:10:39.164Z,24.80
2018-01-12T14:13:07.239Z,25.92
2018-01-12T14:15:35.368Z,24.08
2018-01-12T14:18:04.223Z,26.60
2018-01-12T14:20:32.296Z,26.87
2018-01-12T14:23:00.382Z,23.60
2018-01-12T14:25:29.218Z,23.70
2018-01-12T14:27:57.300Z,25.52
2018-01-12T14:30:25.371Z,24.55
2018-01-12T14:32:53.442Z,33.85
2018-01-12T14:35:21.508Z,34.88
2018-01-12T14:37:49.587Z,33.40
2018-01-12T14:40:17.658Z,28.05
2018-01-12T14:42:45.739Z,42.65
2018-01-12T14:45:13.806Z,41.25
2018-01-12T14:47:41.874Z,35.10
2018-01-12T14:50:09.953Z,38.92
2018-01-12T14:52:38.073Z,38.00
2018-01-12T14:55:06.893Z,48.65
2018-01-12T14:57:34.983Z,38.03
2018-01-12T15:00:03.056Z,34.60
2018-01-12T15:02:31.117Z,37.70
2018-01-12T15:04:59.187Z,32.05
2018-01-12T15:07:27.263Z,37.25
2018-01-12T15:09:55.340Z,42.20
2018-01-12T15:12:23.421Z,32.35
2018-01-12T15:14:51.507Z,37.40
2018-01-12T15:17:19.571Z,33.90
2018-01-12T15:19:47.646Z,35.67
2018-01-12T15:22:15.706Z,34.08
2018-01-12T15:24:43.791Z,31.00
2018-01-12T15:27:12.609Z,32.25
2018-01-12T15:29:40.677Z,32.90
2018-01-12T15:32:08.742Z,33.00
2018-01-12T15:34:36.819Z,28.58
2018-01-12T15:37:04.885Z,30.35
2018-01-12T15:39:32.958Z,30.50
2018-01-12T15:42:01.022Z,30.27
2018-01-12T15:44:29.090Z,31.42
2018-01-12T15:46:57.163Z,29.27
2018-01-12T15:49:25.225Z,28.75
2018-01-12T15:51:54.057Z,31.62
2018-01-12T15:54:22.135Z,38.95
2018-01-12T15:56:50.202Z,34.92
2018-01-12T15:59:18.279Z,42.00
2018-01-12T16:01:46.368Z,42.13
2018-01-12T16:04:14.421Z,38.92
2018-01-12T16:06:42.494Z,44.70
2018-01-12T16:09:10.558Z,50.75
2018-01-12T16:11:38.633Z,41.45
2018-01-12T16:14:06.689Z,41.78
2018-01-12T16:16:34.766Z,43.65
2018-01-12T16:19:02.887Z,45.88
2018-01-12T16:21:31.731Z,44.17
2018-01-12T16:23:59.802Z,46.28
2018-01-12T16:26:27.880Z,44.55
2018-01-12T16:28:55.971Z,43.78
2018-01-12T16:31:24.033Z,46.45
2018-01-12T16:33:52.115Z,44.00
2018-01-12T16:36:20.985Z,43.92
2018-01-12T16:38:49.064Z,44.08
2018-01-12T16:41:17.142Z,43.15
2018-01-12T16:43:45.215Z,45.47
2018-01-12T16:46:14.057Z,36.33
2018-01-12T16:48:42.134Z,42.45
2018-01-12T16:51:10.197Z,38.47
2018-01-12T16:53:38.318Z,32.67
2018-01-12T16:56:07.146Z,54.53
2018-01-12T16:58:35.371Z,39.75
2018-01-12T17:01:03.444Z,40.55
2018-01-12T17:03:31.533Z,44.00
2018-01-12T17:06:00.366Z,39.10
2018-01-12T17:08:28.441Z,47.28
2018-01-12T17:10:56.517Z,39.47
2018-01-12T17:13:24.589Z,40.05
2018-01-12T17:15:52.655Z,31.65
2018-01-12T17:18:20.731Z,29.48
2018-01-12T17:20:48.794Z,29.92
2018-01-12T17:23:16.857Z,35.80
2018-01-12T17:25:44.921Z,29.87
2018-01-12T17:28:12.985Z,30.02
2018-01-12T17:30:41.074Z,31.58
2018-01-12T17:33:09.150Z,31.42
2018-01-12T17:35:37.222Z,26.65
2018-01-12T17:38:05.289Z,27.58
2018-01-12T17:40:33.358Z,28.40
2018-01-12T17:43:01.466Z,28.58
2018-01-12T17:45:29.519Z,29.63
2018-01-12T17:47:57.577Z,30.02
2018-01-12T17:50:25.661Z,29.50
2018-01-12T17:52:53.727Z,28.95
2018-01-12T17:55:21.789Z,28.55
2018-01-12T17:57:49.866Z,28.35
2018-01-12T18:00:17.942Z,27.20
2018-01-12T18:02:46.007Z,27.65
2018-01-12T18:05:14.078Z,26.00
2018-01-12T18:07:42.147Z,27.60
2018-01-12T18:10:10.209Z,30.08
2018-01-12T18:12:38.299Z,27.55
2018-01-12T18:15:06.363Z,26.85
2018-01-12T18:17:34.421Z,27.87
2018-01-12T18:20:02.489Z,29.00
2018-01-12T18:22:30.563Z,27.52
2018-01-12T18:24:58.634Z,26.35
2018-01-12T18:27:26.707Z,28.50
2018-01-12T18:29:54.765Z,27.65
2018-01-12T18:32:22.834Z,26.98
2018-01-12T18:34:50.946Z,29.27
2018-01-12T18:37:19.010Z,27.40
2018-01-12T18:39:47.077Z,27.90
2018-01-12T18:42:15.167Z,26.75
2018-01-12T18:44:43.997Z,27.40
2018-01-12T18:47:12.087Z,27.05
2018-01-12T18:49:40.153Z,29.55
2018-01-12T18:52:08.218Z,27.98
2018-01-12T18:54:36.290Z,28.62
2018-01-12T18:57:04.361Z,28.80
2018-01-12T18:59:32.417Z,28.52
2018-01-12T19:02:00.502Z,28.50
2018-01-12T19:04:28.575Z,28.60
2018-01-12T19:06:56.637Z,29.30
2018-01-12T19:09:24.742Z,26.12
2018-01-12T19:11:52.807Z,30.80
2018-01-12T19:14:20.869Z,30.50
2018-01-12T19:16:48.933Z,29.42
2018-01-12T19:19:17.005Z,30.20
2018-01-12T19:21:45.068Z,27.30
2018-01-12T19:24:13.303Z,29.58
2018-01-12T19:26:41.365Z,30.95
2018-01-12T19:29:09.504Z,31.40
2018-01-12T19:31:37.577Z,29.90
2018-01-12T19:34:05.658Z,30.70
2018-01-12T19:36:34.495Z,30.30
2018-01-12T19:39:02.561Z,30.12
2018-01-12T19:41:30.639Z,33.58
2018-01-12T19:43:58.693Z,32.75
2018-01-12T19:46:26.785Z,31.15
2018-01-12T19:48:54.855Z,30.92
2018-01-12T19:51:22.926Z,32.45
2018-01-12T19:53:50.998Z,32.63
2018-01-12T19:56:19.070Z,32.60
2018-01-12T19:58:47.142Z,31.20
2018-01-12T20:01:15.220Z,30.08
2018-01-12T20:03:43.287Z,30.55
2018-01-12T20:06:11.354Z,33.03
2018-01-12T20:08:39.428Z,33.30
2018-01-12T20:11:07.505Z,33.88
2018-01-12T20:13:35.566Z,32.05
2018-01-12T20:16:03.635Z,32.35
2018-01-12T20:18:31.701Z,32.78
2018-01-12T20:20:59.778Z,31.20
2018-01-12T20:23:27.838Z,30.83
2018-01-12T20:25:55.902Z,32.22
2018-01-12T20:28:23.965Z,33.55
2018-01-12T20:30:52.038Z,32.05
2018-01-12T20:33:20.099Z,31.25
2018-01-12T20:35:48.178Z,31.92
2018-01-12T20:38:16.263Z,30.67
2018-01-12T20:40:44.325Z,31.87
2018-01-12T20:43:12.417Z,32.78
2018-01-12T20:45:40.486Z,32.50
2018-01-12T20:48:08.604Z,34.05
2018-01-12T20:50:36.626Z,32.90
2018-01-12T20:53:04.710Z,32.72
2018-01-12T20:55:32.775Z,33.17
2018-01-12T20:58:00.845Z,35.28
2018-01-12T21:00:28.931Z,34.38
2018-01-12T21:02:56.999Z,33.05
2018-01-12T21:05:25.069Z,34.70
2018-01-12T21:07:53.141Z,34.22
2018-01-12T21:10:21.218Z,34.42
2018-01-12T21:12:49.285Z,35.67
2018-01-12T21:15:17.350Z,32.00
2018-01-12T21:17:45.443Z,33.63
2018-01-12T21:20:14.270Z,33.65
2018-01-12T21:22:42.359Z,33.75
2018-01-12T21:25:10.411Z,35.30
2018-01-12T21:27:38.474Z,31.87
2018-01-12T21:30:06.546Z,32.72
2018-01-12T21:32:34.627Z,34.28
2018-01-12T21:35:02.686Z,34.00
2018-01-12T21:37:30.767Z,33.08
2018-01-12T21:39:58.843Z,35.40
2018-01-12T21:42:26.918Z,32.90
2018-01-12T21:44:54.980Z,33.20
2018-01-12T21:47:23.099Z,32.20
2018-01-12T21:49:51.940Z,32.60
2018-01-12T21:52:20.015Z,34.13
2018-01-12T21:54:48.087Z,33.53
2018-01-12T21:57:16.141Z,34.80
2018-01-12T21:59:44.219Z,36.45
2018-01-12T22:02:12.290Z,34.03
2018-01-12T22:04:40.370Z,34.60
2018-01-12T22:07:08.439Z,36.88
2018-01-12T22:09:36.509Z,34.10
2018-01-12T22:12:04.570Z,35.80
2018-01-12T22:14:32.638Z,36.65
2018-01-12T22:17:00.714Z,33.22
2018-01-12T22:19:28.786Z,34.28
2018-01-12T22:21:56.858Z,34.78
2018-01-12T22:24:24.922Z,33.55
2018-01-12T22:26:53.019Z,36.25
2018-01-12T22:29:21.078Z,33.47
2018-01-12T22:31:49.155Z,34.95
2018-01-12T22:34:17.215Z,34.22
2018-01-12T22:36:45.282Z,33.70
2018-01-12T22:39:13.341Z,32.80
2018-01-12T22:41:41.410Z,34.47
2018-01-12T22:44:09.476Z,36.60
2018-01-12T22:46:37.546Z,35.83
2018-01-12T22:49:05.602Z,35.47
2018-01-12T22:51:33.669Z,32.83
2018-01-12T22:54:01.749Z,32.75
2018-01-12T22:56:29.833Z,32.67
2018-01-12T22:58:57.916Z,34.92
2018-01-12T23:01:26.022Z,32.60
2018-01-12T23:03:54.381Z,32.13
2018-01-12T23:06:22.450Z,33.45
2018-01-12T23:08:50.513Z,34.20
2018-01-12T23:11:18.583Z,35.05
2018-01-12T23:13:46.663Z,35.00
2018-01-12T23:16:14.727Z,32.22
2018-01-12T23:18:42.803Z,34.95
2018-01-12T23:21:10.865Z,37.53
2018-01-12T23:23:39.075Z,41.35
2018-01-12T23:26:07.905Z,43.00
2018-01-12T23:28:35.982Z,37.83
2018-01-12T23:31:04.042Z,38.03
2018-01-12T23:33:32.131Z,39.40
2018-01-12T23:36:00.189Z,35.28
2018-01-12T23:38:28.254Z,40.40
2018-01-12T23:40:56.326Z,37.22
2018-01-12T23:43:24.386Z,39.47
2018-01-12T23:45:52.464Z,41.72
2018-01-12T23:48:20.535Z,46.13
2018-01-12T23:50:48.610Z,41.67
2018-01-12T23:53:16.683Z,44.95
2018-01-12T23:55:44.759Z,39.45
2018-01-12T23:58:12.826Z,38.88
